Serwis meteorologiczny Szefostwa Służby Hydrometeorologicznej Sił Zbrojnych RP
Rejestracja

Wszystkie dane podawane są w czasie UTC za wyjątkiem miejsc gdzie jest jednoznacznie podane, że jest inaczej. Dane podawane w serwisie mają charakter informacyjny!!!
Informacje w sprawie dostępu do serwisu pod numerem tel. +48 261-828-559 lub +48 261-828-138
Informacja dla żołnierzy i pracowników wojska: Prosimy o niezwłoczną zmianę adresu e-mail w profilu użytkownika na pocztę w domenie @ron.mil.pl

Aktualna Pogoda
 
Pogoda w Polsce
1°C Szczecin -1°C Suwałki 0°C Warszawa -1°C Poznan
0°C Opole -1°C Kraków -1°C Rzeszów
Więcej miast w Polsce

Pogoda w Europie
1°C Berlin 4°C Paryz 3°C Bruksela -5°C Oslo
-0°C Praga 0°C Zagrzeb
Więcej miast w Europie

Metary test
METAR EPBC 272000Z AUTO 03003KT 2500 -SN BR BKN009 00/M02 Q1023=


 
Informacje ogólne
Ptaki - zagrożenia
Pogoda
Warszawa
Temperatura: 0.3°C
Wiatr: 3.0 m/s
Ciśnienie: 1024.7 hPa
Zjawiska: Śnieg
Temp. max: 1.6 °C
Temp. min: -1.1 °C


Dane astronomiczne
Warszawa:
Dzien: 08:49 h
Noc: 15:11 h



Prawa autorskie©2007 SSH SZ RP. Wszelkie prawa zastrzeżone.